createdAt,value
2023-03-28T00:03:06.470Z,98834.66
2023-03-28T00:08:09.275Z,98835.22
2023-03-28T00:13:14.476Z,98833.94
2023-03-28T00:18:17.073Z,98846.63
2023-03-28T00:23:19.598Z,98843.59
2023-03-28T00:28:22.220Z,98847.47
2023-03-28T00:33:24.847Z,98860.22
2023-03-28T00:38:27.757Z,98859.41
2023-03-28T00:43:56.858Z,98863.88
2023-03-28T00:49:04.608Z,98871.19
2023-03-28T00:54:13.257Z,98874.56
2023-03-28T00:59:21.613Z,98872.28
2023-03-28T01:04:27.411Z,98873.94
2023-03-28T01:09:31.534Z,98867.47
2023-03-28T01:14:37.940Z,98871.22
2023-03-28T01:19:50.612Z,98865.94
2023-03-28T01:24:53.322Z,98868.06
2023-03-28T01:30:14.417Z,98876.53
2023-03-28T01:36:10.832Z,98873.25
2023-03-28T01:41:19.423Z,98892.81
2023-03-28T01:46:36.877Z,98889.44
2023-03-28T01:52:04.402Z,98889.16
2023-03-28T01:57:19.937Z,98891.91
2023-03-28T02:02:33.311Z,98893.66
2023-03-28T02:07:46.477Z,98892.88
2023-03-28T02:12:57.012Z,98891.25
2023-03-28T02:18:34.973Z,98891.97
2023-03-28T02:23:56.765Z,98898.94
2023-03-28T02:29:19.452Z,98898.03
2023-03-28T02:34:45.370Z,98899.66
2023-03-28T02:40:13.906Z,98901.75
2023-03-28T02:45:30.352Z,98899.22
2023-03-28T02:51:07.193Z,98884.78
2023-03-28T02:56:44.815Z,98896.56
2023-03-28T03:02:02.001Z,98903.22
2023-03-28T03:07:04.575Z,98897.88
2023-03-28T03:12:08.484Z,98897.00
2023-03-28T03:17:11.337Z,98896.13
2023-03-28T03:22:21.065Z,98894.84
2023-03-28T03:27:26.786Z,98897.19
2023-03-28T03:32:29.488Z,98891.72
2023-03-28T03:37:38.912Z,98896.84
2023-03-28T03:42:41.729Z,98892.09
2023-03-28T03:47:44.402Z,98890.84
2023-03-28T03:52:46.963Z,98894.66
2023-03-28T03:57:49.493Z,98897.19
2023-03-28T04:02:52.598Z,98889.78
2023-03-28T04:08:01.794Z,98891.22
2023-03-28T04:13:10.091Z,98899.34
2023-03-28T04:18:15.663Z,98893.47
2023-03-28T04:23:26.060Z,98902.28
2023-03-28T04:28:29.636Z,98906.88
2023-03-28T04:33:36.676Z,98916.47
2023-03-28T04:38:41.833Z,98926.53
2023-03-28T04:44:08.551Z,98935.63
2023-03-28T04:49:18.562Z,98938.16
2023-03-28T04:54:21.556Z,98936.13
2023-03-28T04:59:24.308Z,98942.44
2023-03-28T05:04:28.635Z,98939.97
2023-03-28T05:09:37.862Z,98949.00
2023-03-28T05:14:40.793Z,98948.91
2023-03-28T05:19:49.825Z,98957.69
2023-03-28T05:24:55.573Z,98957.38
2023-03-28T05:29:58.137Z,98961.22
2023-03-28T05:35:01.080Z,98960.50
2023-03-28T05:40:10.866Z,98974.53
2023-03-28T05:45:16.236Z,98974.16
2023-03-28T05:50:39.147Z,98974.16
2023-03-28T05:55:42.687Z,98988.22
2023-03-28T06:00:45.143Z,98986.88
2023-03-28T06:05:48.381Z,98983.88
2023-03-28T06:11:02.642Z,98994.13
2023-03-28T06:16:11.150Z,98994.28
2023-03-28T06:21:13.692Z,99000.00
2023-03-28T06:26:17.310Z,99006.31
2023-03-28T06:31:20.069Z,99005.50
2023-03-28T06:36:24.124Z,99008.97
2023-03-28T06:41:27.091Z,99014.16
2023-03-28T06:46:29.917Z,99021.31
2023-03-28T06:51:32.894Z,99020.59
2023-03-28T06:56:35.538Z,99027.75
2023-03-28T07:01:38.194Z,99027.81
2023-03-28T07:06:49.726Z,99026.34
2023-03-28T07:11:52.425Z,99027.50
2023-03-28T07:16:56.261Z,99027.13
2023-03-28T07:21:58.938Z,99026.28
2023-03-28T07:32:11.032Z,99020.66
2023-03-28T07:37:13.644Z,99030.50
2023-03-28T07:42:29.741Z,99039.00
2023-03-28T07:47:32.375Z,99039.63
2023-03-28T07:52:35.165Z,99051.16
2023-03-28T07:57:37.711Z,99050.75
2023-03-28T08:03:00.612Z,99057.00
2023-03-28T08:08:05.465Z,99058.81
2023-03-28T08:13:08.717Z,99063.84
2023-03-28T08:18:13.139Z,99077.50
2023-03-28T08:23:16.996Z,99072.97
2023-03-28T08:28:19.580Z,99063.41
2023-03-28T08:33:22.260Z,99061.19
2023-03-28T08:38:25.205Z,99068.50
2023-03-28T08:43:48.503Z,99073.75
2023-03-28T08:48:55.219Z,99070.78
2023-03-28T08:54:02.506Z,99067.53
2023-03-28T08:59:11.335Z,99069.81
2023-03-28T09:04:26.249Z,99072.69
2023-03-28T09:09:44.358Z,99076.19
2023-03-28T09:15:12.578Z,99076.44
2023-03-28T09:20:18.354Z,99080.94
2023-03-28T09:26:00.002Z,99082.56
2023-03-28T09:31:10.041Z,99071.56
2023-03-28T09:36:15.698Z,99080.16
2023-03-28T09:41:44.255Z,99070.84
2023-03-28T09:47:14.835Z,99072.34
2023-03-28T09:52:24.280Z,99073.47
2023-03-28T09:57:27.276Z,99077.38
2023-03-28T10:02:34.024Z,99057.44
2023-03-28T10:07:46.328Z,99045.03
2023-03-28T10:13:05.037Z,99051.69
2023-03-28T10:18:25.449Z,99050.63
2023-03-28T10:23:52.438Z,99044.56
2023-03-28T10:28:58.767Z,99037.16
2023-03-28T10:34:04.868Z,99028.88
2023-03-28T10:39:33.461Z,99033.03
2023-03-28T10:45:02.720Z,99028.88
2023-03-28T10:50:38.127Z,99034.31
2023-03-28T10:56:01.645Z,99020.00
2023-03-28T11:01:25.324Z,99012.69
2023-03-28T11:06:51.495Z,99013.31
2023-03-28T11:12:28.325Z,99011.66
2023-03-28T11:18:00.054Z,99002.31
2023-03-28T11:23:26.766Z,98996.09
2023-03-28T11:29:07.370Z,98995.94
2023-03-28T11:34:28.856Z,98988.16
2023-03-28T11:39:59.718Z,98991.13
2023-03-28T11:45:12.924Z,98982.25
2023-03-28T11:50:18.563Z,98959.53
2023-03-28T11:56:07.013Z,98957.63
2023-03-28T12:01:33.598Z,98955.22
2023-03-28T12:07:09.144Z,98946.84
2023-03-28T12:12:36.591Z,98934.84
2023-03-28T12:17:49.901Z,98923.22
2023-03-28T12:23:01.799Z,98920.25
2023-03-28T12:28:26.624Z,98922.88
2023-03-28T12:34:08.149Z,98913.31
2023-03-28T12:39:59.105Z,98911.00
2023-03-28T12:45:14.725Z,98899.41
2023-03-28T12:50:58.110Z,98886.84
2023-03-28T12:56:03.804Z,98896.06
2023-03-28T13:01:16.353Z,98893.88
2023-03-28T13:06:58.643Z,98880.81
2023-03-28T13:12:20.316Z,98883.34
2023-03-28T13:17:26.181Z,98867.63
2023-03-28T13:22:30.741Z,98864.00
2023-03-28T13:27:34.891Z,98857.38
2023-03-28T13:37:42.674Z,98850.44
2023-03-28T13:42:59.029Z,98857.22
2023-03-28T13:48:12.685Z,98840.22
2023-03-28T13:53:16.200Z,98838.59
2023-03-28T13:58:19.457Z,98818.69
2023-03-28T14:03:22.197Z,98809.06
2023-03-28T14:08:26.025Z,98796.25
2023-03-28T14:13:33.759Z,98794.97
2023-03-28T14:18:40.875Z,98779.28
2023-03-28T14:24:12.907Z,98775.97
2023-03-28T14:29:18.087Z,98759.53
2023-03-28T14:34:25.834Z,98755.25
2023-03-28T14:39:30.769Z,98749.31
2023-03-28T14:44:39.825Z,98746.06
2023-03-28T14:49:42.545Z,98746.06
2023-03-28T14:54:48.243Z,98735.66
2023-03-28T14:59:52.624Z,98725.38
2023-03-28T15:05:03.924Z,98727.13
2023-03-28T15:10:11.354Z,98715.91
2023-03-28T15:15:30.969Z,98696.41
2023-03-28T15:20:37.103Z,98690.28
2023-03-28T15:25:39.688Z,98683.59
2023-03-28T15:30:44.470Z,98676.66
2023-03-28T15:35:48.185Z,98675.50
2023-03-28T15:40:59.635Z,98659.91
2023-03-28T15:46:04.065Z,98648.84
2023-03-28T15:51:13.165Z,98643.75
2023-03-28T15:56:37.389Z,98648.50
2023-03-28T16:01:40.820Z,98630.06
2023-03-28T16:06:45.538Z,98626.56
2023-03-28T16:11:59.810Z,98623.03
2023-03-28T16:17:17.946Z,98632.97
2023-03-28T16:22:31.490Z,98625.81
2023-03-28T16:27:35.941Z,98626.19
2023-03-28T16:32:40.034Z,98615.06
2023-03-28T16:37:45.729Z,98609.13
2023-03-28T16:42:48.468Z,98603.56
2023-03-28T16:47:51.358Z,98608.94
2023-03-28T16:52:54.043Z,98594.44
2023-03-28T16:57:56.937Z,98589.81
2023-03-28T17:03:07.963Z,98593.47
2023-03-28T17:08:10.689Z,98585.78
2023-03-28T17:13:13.252Z,98572.50
2023-03-28T17:18:16.478Z,98568.00
2023-03-28T17:23:19.156Z,98554.06
2023-03-28T17:28:21.801Z,98546.72
2023-03-28T17:33:24.531Z,98551.34
2023-03-28T17:38:27.589Z,98548.75
2023-03-28T17:43:30.133Z,98530.78
2023-03-28T17:48:32.794Z,98529.66
2023-03-28T17:53:35.503Z,98520.72
2023-03-28T17:58:38.531Z,98526.44
2023-03-28T18:03:41.830Z,98517.16
2023-03-28T18:09:08.442Z,98517.56
2023-03-28T18:14:11.449Z,98510.03
2023-03-28T18:19:17.945Z,98503.31
2023-03-28T18:24:21.479Z,98507.56
2023-03-28T18:29:24.499Z,98504.09
2023-03-28T18:34:27.458Z,98505.81
2023-03-28T18:39:30.248Z,98497.06
2023-03-28T18:44:35.852Z,98494.69
2023-03-28T18:49:38.869Z,98491.81
2023-03-28T18:54:46.174Z,98483.19
2023-03-28T18:59:52.795Z,98476.44
2023-03-28T19:04:55.788Z,98478.34
2023-03-28T19:09:58.687Z,98481.00
2023-03-28T19:15:01.326Z,98487.09
2023-03-28T19:20:08.301Z,98494.63
2023-03-28T19:25:11.271Z,98507.66
2023-03-28T19:30:14.082Z,98501.66
2023-03-28T19:35:16.793Z,98499.00
2023-03-28T19:40:19.495Z,98496.88
2023-03-28T19:45:22.115Z,98501.97
2023-03-28T19:50:25.152Z,98494.16
2023-03-28T19:55:27.910Z,98500.19
2023-03-28T20:00:31.454Z,98487.06
2023-03-28T20:05:33.999Z,98483.13
2023-03-28T20:10:44.685Z,98480.16
2023-03-28T20:15:47.878Z,98476.75
2023-03-28T20:20:56.080Z,98473.09
2023-03-28T20:26:01.674Z,98466.50
2023-03-28T20:31:04.719Z,98478.13
2023-03-28T20:36:08.264Z,98484.97
2023-03-28T20:41:17.046Z,98495.13
2023-03-28T20:46:20.027Z,98489.91
2023-03-28T20:51:24.031Z,98485.53
2023-03-28T20:56:31.246Z,98484.31
2023-03-28T21:01:34.803Z,98488.50
2023-03-28T21:06:38.512Z,98396.69
2023-03-28T21:11:41.317Z,98394.94
2023-03-28T21:16:43.997Z,98420.66
2023-03-28T21:21:47.447Z,98443.47
2023-03-28T21:26:50.466Z,98419.41
2023-03-28T21:31:53.053Z,98414.22
2023-03-28T21:36:56.092Z,98403.16
2023-03-28T21:41:59.379Z,98425.91
2023-03-28T21:47:01.978Z,98440.88
2023-03-28T21:52:05.221Z,98417.69
2023-03-28T21:57:07.801Z,98409.88
2023-03-28T22:02:10.404Z,98400.06
2023-03-28T22:07:12.977Z,98407.84
2023-03-28T22:12:15.476Z,98410.63
2023-03-28T22:17:18.005Z,98434.25
2023-03-28T22:22:28.409Z,98439.81
2023-03-28T22:27:31.832Z,98438.91
2023-03-28T22:32:34.567Z,98467.63
2023-03-28T22:37:37.740Z,98510.88
2023-03-28T22:42:40.287Z,98511.03
2023-03-28T22:47:43.059Z,98515.91
2023-03-28T22:52:50.181Z,98518.56
2023-03-28T22:57:53.460Z,98494.44
2023-03-28T23:02:56.470Z,98490.59
2023-03-28T23:08:00.211Z,98505.34
2023-03-28T23:13:05.673Z,98498.06
2023-03-28T23:18:08.652Z,98496.13
2023-03-28T23:23:12.864Z,98472.16
2023-03-28T23:28:17.284Z,98454.66
2023-03-28T23:33:21.477Z,98416.47
2023-03-28T23:38:24.051Z,98395.19
2023-03-28T23:43:26.881Z,98371.63
2023-03-28T23:48:29.517Z,98378.72
2023-03-28T23:53:32.136Z,98371.47
2023-03-28T23:58:35.445Z,98377.00
